createdAt,value
2022-07-30T00:00:36.924Z,8.40
2022-07-30T00:01:37.007Z,11.00
2022-07-30T00:02:36.860Z,10.20
2022-07-30T00:03:36.927Z,9.30
2022-07-30T00:04:36.825Z,9.90
2022-07-30T00:05:36.857Z,9.20
2022-07-30T00:06:36.806Z,11.40
2022-07-30T00:07:36.868Z,13.10
2022-07-30T00:08:36.881Z,10.70
2022-07-30T00:09:36.996Z,11.90
2022-07-30T00:10:36.983Z,14.30
2022-07-30T00:11:37.298Z,13.90
2022-07-30T00:12:36.766Z,9.40
2022-07-30T00:13:36.716Z,11.70
2022-07-30T00:14:36.705Z,10.80
2022-07-30T00:15:36.748Z,13.80
2022-07-30T00:16:36.736Z,8.40
2022-07-30T00:17:36.739Z,14.30
2022-07-30T00:18:36.686Z,12.70
2022-07-30T00:19:36.627Z,12.20
2022-07-30T00:20:36.653Z,11.10
2022-07-30T00:21:39.068Z,10.40
2022-07-30T00:22:36.641Z,10.60
2022-07-30T00:23:36.577Z,11.40
2022-07-30T00:24:36.565Z,10.20
2022-07-30T00:25:36.594Z,10.90
2022-07-30T00:26:36.604Z,11.90
2022-07-30T00:27:36.630Z,8.10
2022-07-30T00:28:36.531Z,8.60
2022-07-30T00:29:36.596Z,9.80
2022-07-30T00:30:36.555Z,8.40
2022-07-30T00:31:37.324Z,13.10
2022-07-30T00:32:36.476Z,10.50
2022-07-30T00:33:36.461Z,12.40
2022-07-30T00:34:36.451Z,10.20
2022-07-30T00:35:36.446Z,11.20
2022-07-30T00:36:36.441Z,8.40
2022-07-30T00:37:36.483Z,13.00
2022-07-30T00:38:36.420Z,13.00
2022-07-30T00:39:36.355Z,9.70
2022-07-30T00:40:36.380Z,10.60
2022-07-30T00:41:36.389Z,10.40
2022-07-30T00:42:36.345Z,10.70
2022-07-30T00:43:36.410Z,16.60
2022-07-30T00:44:37.075Z,11.80
2022-07-30T00:45:36.333Z,10.90
2022-07-30T00:46:36.350Z,13.50
2022-07-30T00:47:36.321Z,9.80
2022-07-30T00:48:36.255Z,14.70
2022-07-30T00:49:37.185Z,12.30
2022-07-30T00:50:36.349Z,11.40
2022-07-30T00:51:36.247Z,10.70
2022-07-30T00:52:36.204Z,11.20
2022-07-30T00:53:36.273Z,10.00
2022-07-30T00:54:36.166Z,14.20
2022-07-30T00:55:36.190Z,12.10
2022-07-30T00:56:36.172Z,14.80
2022-07-30T00:57:36.174Z,14.00
2022-07-30T00:58:36.098Z,14.80
2022-07-30T00:59:36.113Z,11.50
2022-07-30T01:00:36.118Z,13.80
2022-07-30T01:01:36.209Z,12.40
2022-07-30T01:02:36.193Z,12.90
2022-07-30T01:03:36.133Z,12.50
2022-07-30T01:04:36.138Z,10.40
2022-07-30T01:05:36.013Z,13.90
2022-07-30T01:06:35.993Z,9.80
2022-07-30T01:07:35.965Z,14.60
2022-07-30T01:08:36.076Z,12.00
2022-07-30T01:09:35.976Z,10.80
2022-07-30T01:10:36.072Z,10.90
2022-07-30T01:11:35.929Z,12.80
2022-07-30T01:12:36.049Z,12.60
2022-07-30T01:13:58.524Z,9.80
2022-07-30T01:14:36.544Z,10.00
2022-07-30T01:15:35.895Z,15.40
2022-07-30T01:16:35.947Z,9.90
2022-07-30T01:17:35.997Z,9.50
2022-07-30T01:23:49.507Z,12.20
2022-07-30T01:24:44.456Z,11.50
2022-07-30T01:25:44.922Z,11.20
2022-07-30T01:26:44.490Z,10.70
2022-07-30T01:27:46.719Z,11.60
2022-07-30T01:28:44.407Z,10.80
2022-07-30T01:29:44.513Z,12.40
2022-07-30T01:31:06.698Z,13.80
2022-07-30T01:31:44.421Z,11.10
2022-07-30T01:32:44.422Z,10.80
2022-07-30T01:33:44.326Z,11.60
2022-07-30T01:34:44.352Z,14.00
2022-07-30T01:35:44.734Z,9.20
2022-07-30T01:37:05.669Z,11.50
2022-07-30T01:37:44.341Z,11.90
2022-07-30T01:38:44.313Z,10.30
2022-07-30T01:39:44.333Z,11.20
2022-07-30T01:40:44.690Z,11.50
2022-07-30T01:41:44.529Z,12.00
2022-07-30T01:42:44.269Z,12.60
2022-07-30T01:43:44.220Z,11.50
2022-07-30T01:44:44.203Z,10.10
2022-07-30T01:45:44.530Z,12.70
2022-07-30T01:46:44.194Z,15.10
2022-07-30T01:47:44.183Z,15.30
2022-07-30T01:49:05.168Z,11.70
2022-07-30T01:49:44.209Z,13.80
2022-07-30T01:50:44.142Z,13.20
2022-07-30T01:51:44.165Z,12.60
2022-07-30T01:52:46.871Z,16.20
2022-07-30T01:53:44.252Z,13.80
2022-07-30T01:54:44.072Z,14.80
2022-07-30T01:55:44.096Z,14.60
2022-07-30T01:56:44.023Z,13.30
2022-07-30T01:58:57.147Z,9.40
2022-07-30T01:59:59.669Z,12.30
2022-07-30T02:00:58.218Z,13.60
2022-07-30T02:01:58.085Z,13.90
2022-07-30T02:02:58.184Z,16.10
2022-07-30T02:03:58.154Z,13.90
2022-07-30T02:04:58.159Z,13.10
2022-07-30T02:05:58.061Z,12.60
2022-07-30T02:06:58.514Z,14.00
2022-07-30T02:07:59.295Z,12.60
2022-07-30T02:08:58.013Z,17.90
2022-07-30T02:09:58.110Z,15.10
2022-07-30T02:10:57.979Z,15.40
2022-07-30T02:11:57.993Z,15.10
2022-07-30T02:12:57.959Z,13.40
2022-07-30T02:13:58.029Z,12.60
2022-07-30T02:14:58.076Z,16.80
2022-07-30T02:15:58.004Z,13.40
2022-07-30T02:16:58.214Z,14.00
2022-07-30T02:17:57.869Z,12.90
2022-07-30T02:18:58.452Z,12.80
2022-07-30T02:19:57.964Z,11.80
2022-07-30T02:20:57.847Z,17.00
2022-07-30T02:21:57.863Z,14.20
2022-07-30T02:22:57.996Z,9.90
2022-07-30T02:23:57.894Z,12.80
2022-07-30T02:24:57.895Z,15.00
2022-07-30T02:25:57.871Z,14.20
2022-07-30T02:26:58.332Z,13.00
2022-07-30T02:27:57.787Z,16.50
2022-07-30T02:28:57.734Z,16.50
2022-07-30T02:29:57.808Z,14.10
2022-07-30T02:30:57.773Z,15.70
2022-07-30T02:31:57.738Z,12.00
2022-07-30T02:32:57.728Z,19.50
2022-07-30T02:33:57.768Z,16.90
2022-07-30T02:34:57.701Z,14.60
2022-07-30T02:35:57.686Z,12.90
2022-07-30T02:36:58.102Z,17.90
2022-07-30T02:37:57.666Z,13.40
2022-07-30T02:38:57.659Z,14.80
2022-07-30T02:39:57.669Z,10.40
2022-07-30T02:40:57.706Z,11.60
2022-07-30T02:41:58.105Z,12.50
2022-07-30T02:42:57.543Z,15.20
2022-07-30T02:43:58.588Z,9.50
2022-07-30T02:44:57.527Z,9.90
2022-07-30T02:45:57.516Z,14.10
2022-07-30T02:46:57.866Z,11.10
2022-07-30T02:47:57.481Z,14.40
2022-07-30T02:48:57.773Z,13.10
2022-07-30T02:49:57.451Z,14.70
2022-07-30T02:50:57.582Z,11.80
2022-07-30T02:51:57.549Z,11.70
2022-07-30T02:52:57.512Z,13.00
2022-07-30T02:53:57.677Z,10.10
2022-07-30T02:54:57.387Z,10.20
2022-07-30T02:55:57.380Z,11.00
2022-07-30T02:56:57.982Z,12.50
2022-07-30T02:57:57.339Z,14.40
2022-07-30T02:58:57.422Z,15.60
2022-07-30T02:59:57.400Z,14.30
2022-07-30T03:00:57.386Z,14.20
2022-07-30T03:01:57.390Z,15.50
2022-07-30T03:02:57.328Z,16.20
2022-07-30T03:03:57.349Z,15.00
2022-07-30T03:04:57.250Z,15.10
2022-07-30T03:05:57.252Z,12.70
2022-07-30T03:06:57.226Z,15.00
2022-07-30T03:07:57.249Z,14.10
2022-07-30T03:08:57.250Z,14.70
2022-07-30T03:09:57.195Z,15.20
2022-07-30T03:10:57.233Z,15.80
2022-07-30T03:11:57.160Z,12.70
2022-07-30T03:12:57.158Z,15.10
2022-07-30T03:13:57.152Z,12.60
2022-07-30T03:14:57.112Z,16.70
2022-07-30T03:15:57.156Z,11.90
2022-07-30T03:16:57.513Z,15.50
2022-07-30T03:17:57.173Z,14.40
2022-07-30T03:18:57.087Z,16.00
2022-07-30T03:19:57.083Z,18.40
2022-07-30T03:20:57.065Z,12.80
2022-07-30T03:21:57.038Z,16.20
2022-07-30T03:22:57.082Z,15.60
2022-07-30T03:23:57.213Z,16.20
2022-07-30T03:24:57.436Z,16.30
2022-07-30T03:25:57.021Z,21.30
2022-07-30T03:26:57.009Z,19.10
2022-07-30T03:27:57.013Z,14.90
2022-07-30T03:28:57.010Z,21.20
2022-07-30T03:29:56.931Z,14.70
2022-07-30T03:30:56.986Z,16.20
2022-07-30T03:31:56.992Z,16.30
2022-07-30T03:32:56.883Z,16.90
2022-07-30T03:33:56.881Z,17.40
2022-07-30T03:34:56.899Z,16.20
2022-07-30T03:35:56.882Z,16.10
2022-07-30T03:36:56.850Z,16.00
2022-07-30T03:37:56.874Z,18.60
2022-07-30T03:38:56.805Z,20.60
2022-07-30T03:39:56.789Z,17.10
2022-07-30T03:40:56.804Z,17.30
2022-07-30T03:41:56.766Z,16.20
2022-07-30T03:42:56.832Z,16.50
2022-07-30T03:43:56.734Z,16.60
2022-07-30T03:45:20.030Z,15.50
2022-07-30T03:45:56.721Z,18.20
2022-07-30T03:46:56.838Z,19.80
2022-07-30T03:47:56.674Z,17.00
2022-07-30T03:49:21.122Z,21.80
2022-07-30T03:49:56.647Z,17.90
2022-07-30T03:50:56.677Z,17.20
2022-07-30T03:51:56.666Z,19.70
2022-07-30T03:52:56.630Z,17.10
2022-07-30T03:53:56.609Z,17.50
2022-07-30T03:54:56.609Z,13.30
2022-07-30T03:55:56.670Z,15.00
2022-07-30T03:56:56.777Z,13.80
2022-07-30T03:57:56.576Z,17.20
2022-07-30T03:58:56.553Z,16.70
2022-07-30T03:59:56.547Z,15.40
2022-07-30T04:00:56.658Z,13.40
2022-07-30T04:02:05.989Z,15.40
2022-07-30T04:02:56.662Z,16.20
2022-07-30T04:03:56.524Z,17.70
2022-07-30T04:05:17.618Z,16.10
2022-07-30T04:05:59.622Z,19.30
2022-07-30T04:06:56.436Z,20.30
2022-07-30T04:07:57.345Z,17.20
2022-07-30T04:08:56.396Z,17.50
2022-07-30T04:09:56.387Z,16.00
2022-07-30T04:10:56.420Z,17.40
2022-07-30T04:11:56.499Z,16.80
2022-07-30T04:12:56.351Z,20.20
2022-07-30T04:13:56.328Z,18.10
2022-07-30T04:14:56.842Z,24.50
2022-07-30T04:16:05.664Z,17.90
2022-07-30T04:16:56.393Z,21.30
2022-07-30T04:17:56.335Z,18.60
2022-07-30T04:18:56.338Z,20.20
2022-07-30T04:19:56.367Z,18.40
2022-07-30T04:20:56.337Z,21.70
2022-07-30T04:21:56.294Z,19.60
2022-07-30T04:22:56.212Z,20.50
2022-07-30T04:24:03.072Z,16.90
2022-07-30T04:24:56.410Z,20.80
2022-07-30T04:25:56.239Z,16.80
2022-07-30T04:26:56.247Z,17.30
2022-07-30T04:28:03.450Z,19.60
2022-07-30T04:28:56.221Z,18.30
2022-07-30T04:29:56.126Z,15.80
2022-07-30T04:30:56.226Z,21.60
2022-07-30T04:31:56.130Z,15.40
2022-07-30T04:32:56.076Z,18.20
2022-07-30T04:33:58.814Z,19.30
2022-07-30T04:34:56.152Z,15.90
2022-07-30T04:35:59.604Z,18.10
2022-07-30T04:36:56.080Z,15.50
2022-07-30T04:37:56.048Z,16.10
2022-07-30T04:38:56.070Z,17.00
2022-07-30T04:39:56.022Z,16.10
2022-07-30T04:40:55.991Z,16.90
2022-07-30T04:41:55.976Z,19.20
2022-07-30T04:42:57.176Z,17.70
2022-07-30T04:43:55.939Z,15.50
2022-07-30T04:44:55.987Z,17.80
2022-07-30T04:45:55.939Z,15.40
2022-07-30T04:46:55.903Z,18.60
2022-07-30T04:47:56.555Z,20.40
2022-07-30T04:48:56.020Z,19.30
2022-07-30T04:49:55.885Z,19.40
2022-07-30T04:50:55.837Z,17.80
2022-07-30T04:51:55.886Z,18.80
2022-07-30T04:52:56.069Z,16.50
2022-07-30T04:53:55.826Z,18.70
2022-07-30T04:54:55.801Z,15.10
2022-07-30T04:55:55.937Z,15.30
2022-07-30T04:56:55.783Z,17.80
2022-07-30T04:57:56.399Z,15.70
2022-07-30T04:58:55.786Z,14.60
2022-07-30T04:59:55.736Z,18.50
2022-07-30T05:00:55.748Z,16.60
2022-07-30T05:01:55.930Z,14.70
2022-07-30T05:02:56.098Z,17.40
2022-07-30T05:03:55.700Z,18.60
2022-07-30T05:04:55.780Z,15.80
2022-07-30T05:05:57.566Z,13.30
2022-07-30T05:06:55.650Z,12.90
2022-07-30T05:07:56.031Z,17.50
2022-07-30T05:08:55.601Z,13.20
2022-07-30T05:09:55.585Z,13.60
2022-07-30T05:10:55.575Z,13.10
2022-07-30T05:11:55.617Z,18.20
2022-07-30T05:12:55.614Z,13.50
2022-07-30T05:13:55.562Z,18.50
2022-07-30T05:14:55.603Z,13.20
2022-07-30T05:15:55.541Z,13.30
2022-07-30T05:16:55.580Z,17.90
2022-07-30T05:17:55.572Z,15.50
2022-07-30T05:18:55.477Z,14.00
2022-07-30T05:19:55.646Z,14.00
2022-07-30T05:20:55.436Z,12.50
2022-07-30T05:21:55.595Z,14.90
2022-07-30T05:22:55.441Z,14.90
2022-07-30T05:23:55.412Z,13.80
2022-07-30T05:24:55.566Z,18.80
2022-07-30T05:25:55.476Z,17.60
2022-07-30T05:26:55.443Z,14.80
2022-07-30T05:27:55.459Z,16.70
2022-07-30T05:29:19.948Z,14.90
2022-07-30T05:29:55.594Z,14.60
2022-07-30T05:30:55.425Z,14.90
2022-07-30T05:31:55.302Z,17.20
2022-07-30T05:32:55.969Z,15.50
2022-07-30T05:33:55.287Z,15.60
2022-07-30T05:34:55.398Z,15.90
2022-07-30T05:35:55.294Z,14.50
2022-07-30T05:36:55.339Z,14.10
2022-07-30T05:38:04.401Z,15.00
2022-07-30T05:38:55.218Z,15.00
2022-07-30T05:40:02.373Z,18.50
2022-07-30T05:40:56.242Z,19.70
2022-07-30T05:41:55.198Z,16.60
2022-07-30T05:42:55.285Z,15.70
2022-07-30T05:43:55.773Z,15.00
2022-07-30T05:44:55.129Z,15.90
2022-07-30T05:46:16.542Z,14.50
2022-07-30T05:46:55.152Z,20.50
2022-07-30T05:47:55.124Z,17.70
2022-07-30T05:48:55.136Z,15.20
2022-07-30T05:49:55.157Z,21.70
2022-07-30T05:50:55.412Z,18.20
2022-07-30T05:51:55.037Z,21.40
2022-07-30T05:52:55.148Z,17.90
2022-07-30T05:53:55.156Z,19.60
2022-07-30T05:54:55.047Z,17.90
2022-07-30T05:55:54.975Z,22.80
2022-07-30T05:56:54.988Z,19.80
2022-07-30T05:57:54.978Z,17.10
2022-07-30T05:58:58.998Z,26.70
2022-07-30T05:59:54.926Z,21.10
2022-07-30T06:00:55.295Z,19.80
2022-07-30T06:01:58.062Z,18.60
2022-07-30T06:02:54.924Z,20.90
2022-07-30T06:03:55.091Z,18.40
2022-07-30T06:04:55.043Z,21.80
2022-07-30T06:05:54.842Z,18.20
2022-07-30T06:07:15.928Z,19.60
2022-07-30T06:07:54.811Z,18.80
2022-07-30T06:08:54.940Z,17.90
2022-07-30T06:09:54.925Z,21.40
2022-07-30T06:10:54.777Z,19.40
2022-07-30T06:11:54.783Z,17.30
2022-07-30T06:12:54.892Z,19.80
2022-07-30T06:13:54.856Z,17.70
2022-07-30T06:14:54.786Z,23.20
2022-07-30T06:15:54.809Z,20.10
2022-07-30T06:16:54.703Z,20.60
2022-07-30T06:17:59.510Z,20.00
2022-07-30T06:18:54.874Z,19.50
2022-07-30T06:19:54.685Z,23.50
2022-07-30T06:20:56.001Z,19.70
2022-07-30T06:22:05.424Z,20.50
2022-07-30T06:22:54.741Z,20.00
2022-07-30T06:23:54.633Z,19.80
2022-07-30T06:24:54.683Z,18.40
2022-07-30T06:25:54.626Z,16.40
2022-07-30T06:26:56.660Z,18.70
2022-07-30T06:27:54.553Z,20.50
2022-07-30T06:28:54.707Z,20.90
2022-07-30T06:29:54.628Z,16.00
2022-07-30T06:30:54.558Z,17.80
2022-07-30T06:31:54.611Z,17.70
2022-07-30T06:32:54.516Z,17.30
2022-07-30T06:33:54.485Z,19.70
2022-07-30T06:35:02.486Z,21.20
2022-07-30T06:35:54.486Z,22.70
2022-07-30T06:36:55.574Z,16.00
2022-07-30T06:38:15.602Z,17.90
2022-07-30T06:38:54.486Z,19.90
2022-07-30T06:39:57.685Z,19.60
2022-07-30T06:40:57.134Z,23.40
2022-07-30T06:41:54.425Z,18.10
2022-07-30T06:42:54.374Z,16.20
2022-07-30T06:43:54.385Z,18.60
2022-07-30T06:44:54.430Z,17.00
2022-07-30T06:45:54.363Z,15.00
2022-07-30T06:46:54.370Z,15.90
2022-07-30T06:49:05.717Z,18.00
2022-07-30T06:50:06.615Z,17.20
2022-07-30T06:51:06.680Z,16.50
2022-07-30T06:52:06.609Z,16.30
2022-07-30T06:53:06.583Z,18.40
2022-07-30T06:54:07.782Z,18.60
2022-07-30T06:55:06.658Z,20.00
2022-07-30T06:56:06.573Z,17.30
2022-07-30T06:57:06.767Z,17.10
2022-07-30T06:58:06.517Z,17.80
2022-07-30T06:59:06.548Z,22.50
2022-07-30T07:00:06.506Z,19.90
2022-07-30T07:01:11.248Z,17.00
2022-07-30T07:02:06.480Z,17.10
2022-07-30T07:03:11.268Z,16.60
2022-07-30T07:04:06.486Z,17.60
2022-07-30T07:05:06.417Z,18.70
2022-07-30T07:07:37.095Z,19.10
2022-07-30T07:08:19.862Z,17.90
2022-07-30T07:09:19.852Z,19.10
2022-07-30T07:10:19.858Z,19.90
2022-07-30T07:11:19.812Z,19.50
2022-07-30T07:12:19.920Z,20.30
2022-07-30T07:13:19.789Z,20.50
2022-07-30T07:14:19.853Z,21.20
2022-07-30T07:15:19.881Z,17.10
2022-07-30T07:16:19.810Z,21.20
2022-07-30T07:17:19.799Z,18.70
2022-07-30T07:18:19.821Z,20.40
2022-07-30T07:20:00.842Z,24.30
2022-07-30T07:20:30.699Z,19.20
2022-07-30T07:21:19.690Z,21.80
2022-07-30T07:22:19.684Z,18.60
2022-07-30T07:23:21.663Z,19.30
2022-07-30T07:24:19.671Z,19.30
2022-07-30T07:25:19.697Z,19.10
2022-07-30T07:26:19.617Z,16.60
2022-07-30T07:27:19.730Z,18.00
2022-07-30T07:28:19.671Z,19.30
2022-07-30T07:29:19.635Z,18.80
2022-07-30T07:30:19.620Z,20.00
2022-07-30T07:32:05.289Z,18.70
2022-07-30T07:32:19.562Z,19.00
2022-07-30T07:33:19.628Z,19.70
2022-07-30T07:34:19.524Z,20.20
2022-07-30T07:35:19.549Z,19.50
2022-07-30T07:36:19.501Z,17.70
2022-07-30T07:37:18.539Z,18.30
2022-07-30T07:38:19.458Z,17.10
2022-07-30T07:39:19.454Z,18.80
2022-07-30T07:40:19.465Z,18.60
2022-07-30T07:41:19.431Z,20.70
2022-07-30T07:42:19.410Z,19.50
2022-07-30T07:43:19.412Z,18.10
2022-07-30T07:44:19.410Z,17.10
2022-07-30T07:45:19.414Z,20.50
2022-07-30T07:46:33.576Z,17.10
2022-07-30T07:47:19.358Z,18.50
2022-07-30T07:48:19.349Z,15.50
2022-07-30T07:49:19.425Z,17.90
2022-07-30T07:50:19.340Z,23.80
2022-07-30T07:51:47.767Z,18.70
2022-07-30T07:52:19.277Z,22.50
2022-07-30T07:53:19.333Z,17.10
2022-07-30T07:54:22.190Z,17.70
2022-07-30T07:55:19.273Z,16.40
2022-07-30T07:56:19.230Z,18.70
2022-07-30T07:57:21.065Z,18.40
2022-07-30T07:58:25.530Z,16.70
2022-07-30T07:59:19.292Z,16.40
2022-07-30T08:00:19.181Z,17.50
2022-07-30T08:01:19.205Z,20.80
2022-07-30T08:02:19.750Z,17.80
2022-07-30T08:03:19.138Z,17.80
2022-07-30T08:04:20.575Z,17.40
2022-07-30T08:05:19.844Z,20.80
2022-07-30T08:06:19.077Z,17.70
2022-07-30T08:07:19.119Z,17.00
2022-07-30T08:08:19.144Z,15.90
2022-07-30T08:09:19.122Z,17.40
2022-07-30T08:10:19.077Z,20.60
2022-07-30T08:11:19.035Z,18.50
2022-07-30T08:12:19.016Z,16.60
2022-07-30T08:13:49.076Z,16.70
2022-07-30T08:14:18.982Z,17.60
2022-07-30T08:15:21.920Z,22.30
2022-07-30T08:16:18.999Z,15.80
2022-07-30T08:17:19.096Z,16.80
2022-07-30T08:18:18.942Z,18.80
2022-07-30T08:19:18.905Z,18.70
2022-07-30T08:20:18.957Z,16.80
2022-07-30T08:21:18.880Z,15.90
2022-07-30T08:22:19.108Z,18.80
2022-07-30T08:23:19.055Z,14.90
2022-07-30T08:24:18.839Z,16.10
2022-07-30T08:25:22.421Z,15.70
2022-07-30T08:26:18.791Z,17.40
2022-07-30T08:27:18.828Z,17.00
2022-07-30T08:28:35.067Z,16.60
2022-07-30T08:29:18.813Z,15.80
2022-07-30T08:30:18.824Z,17.50
2022-07-30T08:31:18.734Z,15.60
2022-07-30T08:32:19.611Z,17.00
2022-07-30T08:33:18.731Z,16.00
2022-07-30T08:34:18.681Z,16.80
2022-07-30T08:35:18.738Z,17.80
2022-07-30T08:36:21.532Z,16.30
2022-07-30T08:37:19.033Z,18.60
2022-07-30T08:38:18.785Z,17.50
2022-07-30T08:39:18.679Z,16.70
2022-07-30T08:40:18.765Z,21.90
2022-07-30T08:41:18.630Z,14.40
2022-07-30T08:42:18.882Z,14.40
2022-07-30T08:43:18.680Z,17.00
2022-07-30T08:44:18.566Z,16.20
2022-07-30T08:45:18.596Z,20.60
2022-07-30T08:46:18.519Z,20.00
2022-07-30T08:47:19.321Z,15.80
2022-07-30T08:48:18.493Z,17.90
2022-07-30T08:49:18.500Z,16.60
2022-07-30T08:50:18.615Z,18.10
2022-07-30T08:51:18.452Z,17.00
2022-07-30T08:52:18.726Z,15.10
2022-07-30T08:53:18.522Z,18.90
2022-07-30T08:54:18.510Z,14.40
2022-07-30T08:55:19.006Z,16.90
2022-07-30T08:56:18.448Z,15.50
2022-07-30T08:57:18.478Z,16.90
2022-07-30T08:58:18.383Z,17.20
2022-07-30T08:59:18.418Z,14.90
2022-07-30T09:00:18.356Z,15.30
2022-07-30T09:01:18.310Z,16.20
2022-07-30T09:02:27.202Z,20.30
2022-07-30T09:03:18.303Z,14.30
2022-07-30T09:04:17.271Z,17.50
2022-07-30T09:05:18.283Z,18.60
2022-07-30T09:06:18.233Z,15.10
2022-07-30T09:07:18.260Z,14.10
2022-07-30T09:08:18.857Z,18.50
2022-07-30T09:09:18.279Z,15.70
2022-07-30T09:10:18.232Z,19.40
2022-07-30T09:11:18.215Z,14.80
2022-07-30T09:12:18.179Z,15.70
2022-07-30T09:13:18.235Z,15.20
2022-07-30T09:14:18.221Z,14.90
2022-07-30T09:15:18.192Z,15.90
2022-07-30T09:16:18.240Z,16.10
2022-07-30T09:17:18.129Z,15.20
2022-07-30T09:18:18.194Z,19.80
2022-07-30T09:19:18.070Z,16.60
2022-07-30T09:20:18.493Z,15.30
2022-07-30T09:21:18.069Z,15.70
2022-07-30T09:22:18.040Z,18.10
2022-07-30T09:23:18.043Z,15.10
2022-07-30T09:24:17.997Z,19.60
2022-07-30T09:25:18.827Z,18.00
2022-07-30T09:26:18.099Z,18.80
2022-07-30T09:27:17.983Z,19.90
2022-07-30T09:28:18.494Z,16.30
2022-07-30T09:29:17.961Z,15.10
2022-07-30T09:30:18.099Z,18.50
2022-07-30T09:31:17.958Z,18.70
2022-07-30T09:32:17.917Z,14.60
2022-07-30T09:33:18.055Z,17.00
2022-07-30T09:34:17.946Z,16.50
2022-07-30T09:35:17.848Z,17.80
2022-07-30T09:36:17.896Z,14.00
2022-07-30T09:37:17.869Z,13.90
2022-07-30T09:38:17.864Z,13.20
2022-07-30T09:39:17.898Z,20.80
2022-07-30T09:40:17.797Z,13.50
2022-07-30T09:41:37.549Z,14.80
2022-07-30T09:42:17.902Z,14.10
2022-07-30T09:43:17.797Z,17.90
2022-07-30T09:44:17.753Z,19.20
2022-07-30T09:45:17.704Z,16.30
2022-07-30T09:46:17.741Z,14.60
2022-07-30T09:47:17.738Z,13.30
2022-07-30T09:48:18.091Z,13.40
2022-07-30T09:49:17.844Z,14.50
2022-07-30T09:50:29.903Z,14.90
2022-07-30T09:51:21.361Z,15.80
2022-07-30T09:52:17.657Z,15.30
2022-07-30T09:53:17.641Z,11.50
2022-07-30T09:54:17.745Z,11.60
2022-07-30T09:55:17.609Z,14.50
2022-07-30T09:56:17.592Z,13.30
2022-07-30T09:57:25.787Z,13.50
2022-07-30T09:58:26.699Z,13.30
2022-07-30T09:59:18.620Z,10.80
2022-07-30T10:00:17.613Z,13.10
2022-07-30T10:01:17.520Z,9.40
2022-07-30T10:02:17.490Z,13.10
2022-07-30T10:03:22.005Z,18.00
2022-07-30T10:04:17.571Z,13.50
2022-07-30T10:05:19.017Z,12.20
2022-07-30T10:06:17.526Z,13.90
2022-07-30T10:07:25.358Z,11.00
2022-07-30T10:08:19.023Z,11.30
2022-07-30T10:09:17.435Z,13.80
2022-07-30T10:10:17.500Z,14.70
2022-07-30T10:11:17.402Z,12.90
2022-07-30T10:12:17.377Z,11.00
2022-07-30T10:13:20.515Z,13.70
2022-07-30T10:14:17.392Z,14.80
2022-07-30T10:15:17.325Z,15.30
2022-07-30T10:16:17.321Z,14.40
2022-07-30T10:17:17.668Z,13.50
2022-07-30T10:18:18.188Z,14.50
2022-07-30T10:19:19.295Z,11.10
2022-07-30T10:20:17.277Z,12.60
2022-07-30T10:21:17.312Z,13.00
2022-07-30T10:22:17.346Z,17.60
2022-07-30T10:23:19.332Z,13.00
2022-07-30T10:24:17.296Z,10.50
2022-07-30T10:25:17.215Z,11.60
2022-07-30T10:26:17.429Z,11.70
2022-07-30T10:27:17.215Z,11.20
2022-07-30T10:28:17.156Z,10.40
2022-07-30T10:29:17.319Z,16.00
2022-07-30T10:30:17.122Z,12.50
2022-07-30T10:31:48.541Z,11.30
2022-07-30T10:32:17.111Z,9.90
2022-07-30T10:33:35.236Z,13.00
2022-07-30T10:34:17.445Z,11.80
2022-07-30T10:35:31.249Z,13.00
2022-07-30T10:36:17.167Z,8.50
2022-07-30T10:37:17.084Z,7.70
2022-07-30T10:38:17.010Z,10.40
2022-07-30T10:39:17.048Z,9.40
2022-07-30T10:40:17.045Z,12.30
2022-07-30T10:41:17.074Z,10.50
2022-07-30T10:42:16.967Z,10.90
2022-07-30T10:43:17.253Z,11.40
2022-07-30T10:44:16.992Z,8.90
2022-07-30T10:45:17.350Z,7.80
2022-07-30T10:46:22.806Z,11.20
2022-07-30T10:47:16.911Z,8.70
2022-07-30T10:48:16.890Z,9.80
2022-07-30T10:49:18.554Z,8.70
2022-07-30T10:50:37.856Z,9.10
2022-07-30T10:51:25.258Z,8.20
2022-07-30T10:52:16.859Z,9.10
2022-07-30T10:53:16.999Z,8.50
2022-07-30T10:54:16.792Z,8.10
2022-07-30T10:55:16.783Z,9.30
2022-07-30T10:56:16.753Z,8.30
2022-07-30T10:57:31.855Z,7.50
2022-07-30T10:58:22.915Z,6.30
2022-07-30T10:59:16.745Z,12.10
2022-07-30T11:00:17.745Z,7.50
2022-07-30T11:01:18.430Z,11.10
2022-07-30T11:02:17.710Z,9.40
2022-07-30T11:03:16.702Z,8.70
2022-07-30T11:04:16.660Z,9.30
2022-07-30T11:05:16.649Z,9.60
2022-07-30T11:06:16.649Z,8.30
2022-07-30T11:07:17.464Z,6.50
2022-07-30T11:08:16.638Z,10.40
2022-07-30T11:09:16.648Z,11.50
2022-07-30T11:10:16.552Z,14.50
2022-07-30T11:11:20.233Z,11.40
2022-07-30T11:12:16.934Z,8.20
2022-07-30T11:13:16.560Z,14.90
2022-07-30T11:14:16.586Z,9.20
2022-07-30T11:15:37.865Z,7.60
2022-07-30T11:16:16.504Z,7.70
2022-07-30T11:17:16.452Z,9.20
2022-07-30T11:18:16.686Z,9.10
2022-07-30T11:19:54.938Z,9.00
2022-07-30T11:20:16.412Z,9.20
2022-07-30T11:21:16.433Z,9.20
2022-07-30T11:22:16.384Z,11.00
2022-07-30T11:23:16.398Z,8.80
2022-07-30T11:24:16.361Z,9.60
2022-07-30T11:25:16.355Z,7.50
2022-07-30T11:26:16.351Z,19.70
2022-07-30T11:27:16.337Z,11.40
2022-07-30T11:28:16.346Z,10.40
2022-07-30T11:29:15.300Z,15.20
2022-07-30T11:30:17.081Z,8.20
2022-07-30T11:31:16.278Z,10.30
2022-07-30T11:32:16.266Z,11.70
2022-07-30T11:33:16.252Z,9.80
2022-07-30T11:34:16.257Z,9.90
2022-07-30T11:35:16.267Z,9.00
2022-07-30T11:36:16.271Z,10.20
2022-07-30T11:37:19.129Z,10.00
2022-07-30T11:38:18.636Z,7.40
2022-07-30T11:39:16.182Z,5.60
2022-07-30T11:40:16.139Z,9.50
2022-07-30T11:41:16.128Z,9.10
2022-07-30T11:42:16.120Z,5.30
2022-07-30T11:43:16.157Z,8.20
2022-07-30T11:44:16.081Z,6.00
2022-07-30T11:45:16.115Z,7.80
2022-07-30T11:46:18.255Z,8.40
2022-07-30T11:47:16.056Z,8.70
2022-07-30T11:48:18.304Z,6.50
2022-07-30T11:49:16.168Z,9.90
2022-07-30T11:50:16.043Z,7.00
2022-07-30T11:51:16.012Z,6.00
2022-07-30T11:52:18.222Z,9.20
2022-07-30T11:53:16.028Z,9.80
2022-07-30T11:54:37.733Z,9.10
2022-07-30T11:55:15.946Z,15.70
2022-07-30T11:56:17.036Z,19.60
2022-07-30T11:57:15.937Z,7.20
2022-07-30T11:58:19.346Z,8.00
2022-07-30T11:59:15.946Z,7.80
2022-07-30T12:00:15.857Z,7.60
2022-07-30T12:01:15.877Z,11.20
2022-07-30T12:02:15.841Z,10.60
2022-07-30T12:03:15.843Z,7.40
2022-07-30T12:04:15.807Z,5.60
2022-07-30T12:05:15.811Z,9.20
2022-07-30T12:06:16.965Z,5.60
2022-07-30T12:08:36.459Z,8.00
2022-07-30T12:09:36.733Z,8.80
2022-07-30T12:10:36.715Z,7.60
2022-07-30T12:11:36.730Z,7.20
2022-07-30T12:12:36.689Z,3.90
2022-07-30T12:13:58.594Z,7.60
2022-07-30T12:14:36.665Z,9.90
2022-07-30T12:15:36.687Z,8.80
2022-07-30T12:16:36.624Z,10.20
2022-07-30T12:17:36.621Z,5.70
2022-07-30T12:18:36.616Z,6.00
2022-07-30T12:19:47.771Z,8.80
2022-07-30T12:20:38.691Z,10.20
2022-07-30T12:21:36.564Z,5.50
2022-07-30T12:22:36.556Z,9.40
2022-07-30T12:23:36.561Z,5.90
2022-07-30T12:24:36.526Z,5.50
2022-07-30T12:25:57.608Z,4.50
2022-07-30T12:26:36.535Z,7.30
2022-07-30T12:27:37.957Z,6.70
2022-07-30T12:28:36.479Z,3.40
2022-07-30T12:29:36.478Z,9.80
2022-07-30T12:30:36.433Z,5.10
2022-07-30T12:31:38.368Z,5.60
2022-07-30T12:32:36.416Z,4.60
2022-07-30T12:33:40.574Z,5.90
2022-07-30T12:34:36.402Z,5.80
2022-07-30T12:35:36.394Z,4.30
2022-07-30T12:36:36.369Z,5.90
2022-07-30T12:37:36.428Z,7.60
2022-07-30T12:38:36.382Z,6.00
2022-07-30T12:39:36.370Z,5.20
2022-07-30T12:40:36.340Z,4.20
2022-07-30T12:41:36.278Z,3.60
2022-07-30T12:42:36.277Z,4.40
2022-07-30T12:43:36.440Z,4.80
2022-07-30T12:44:36.289Z,5.80
2022-07-30T12:45:50.331Z,7.00
2022-07-30T12:46:36.248Z,4.50
2022-07-30T12:47:36.212Z,4.90
2022-07-30T12:48:36.180Z,4.20
2022-07-30T12:49:37.789Z,6.50
2022-07-30T12:50:36.184Z,4.70
2022-07-30T12:51:36.734Z,7.60
2022-07-30T12:52:36.133Z,4.40
2022-07-30T12:53:36.120Z,4.70
2022-07-30T12:54:36.358Z,5.20
2022-07-30T12:55:36.115Z,4.50
2022-07-30T12:56:36.374Z,5.00
2022-07-30T12:57:36.085Z,3.90
2022-07-30T12:58:36.084Z,4.90
2022-07-30T12:59:36.074Z,4.40
2022-07-30T13:00:36.824Z,5.60
2022-07-30T13:01:36.053Z,8.30
2022-07-30T13:02:36.011Z,4.30
2022-07-30T13:03:35.989Z,2.70
2022-07-30T13:04:39.820Z,3.30
2022-07-30T13:05:35.989Z,4.70
2022-07-30T13:06:35.953Z,7.10
2022-07-30T13:07:35.964Z,3.50